createdAt,value
2022-11-15T20:13:37.445Z,59.18
2022-11-15T20:14:38.289Z,59.08
2022-11-15T20:15:39.766Z,59.08
2022-11-15T20:16:39.004Z,59.08
2022-11-15T20:17:38.234Z,59.08
2022-11-15T20:18:38.958Z,59.48
2022-11-15T20:19:40.034Z,59.48
2022-11-15T20:20:38.234Z,59.18
2022-11-15T20:21:38.202Z,59.18
2022-11-15T20:24:16.514Z,58.58
2022-11-15T20:25:06.813Z,58.61
2022-11-15T20:26:06.828Z,58.58
2022-11-15T20:27:06.794Z,58.78
2022-11-15T20:28:07.518Z,58.58
2022-11-15T20:29:06.745Z,57.79
2022-11-15T20:30:06.758Z,57.89
2022-11-15T20:31:07.332Z,57.89
2022-11-15T20:32:07.284Z,58.11
2022-11-15T20:33:06.737Z,58.22
2022-11-15T20:34:06.712Z,58.71
2022-11-15T20:35:06.821Z,58.54
2022-11-15T20:36:06.671Z,58.54
2022-11-15T20:37:10.096Z,58.54
2022-11-15T20:38:06.668Z,58.87
2022-11-15T20:39:06.667Z,58.97
2022-11-15T20:40:06.671Z,58.57
2022-11-15T20:41:06.618Z,58.24
2022-11-15T20:42:08.058Z,58.14
2022-11-15T20:43:07.525Z,58.04
2022-11-15T20:44:06.577Z,57.84
2022-11-15T20:45:07.284Z,56.95
2022-11-15T20:46:06.559Z,56.75
2022-11-15T20:47:06.571Z,56.57
2022-11-15T20:48:06.566Z,56.57
2022-11-15T20:49:06.558Z,56.60
2022-11-15T20:50:35.432Z,56.70
2022-11-15T20:51:06.546Z,56.70
2022-11-15T20:52:06.475Z,56.81
2022-11-15T20:53:09.318Z,57.03
2022-11-15T20:54:06.478Z,56.93
2022-11-15T20:55:06.473Z,57.43
2022-11-15T20:56:07.316Z,56.93
2022-11-15T20:57:06.443Z,56.93
2022-11-15T20:58:06.405Z,56.93
2022-11-15T20:59:08.988Z,57.23
2022-11-15T21:00:07.427Z,57.33
2022-11-15T21:01:09.071Z,57.23
2022-11-15T21:02:06.508Z,57.13
2022-11-15T21:03:06.422Z,56.93
2022-11-15T21:04:07.370Z,57.03
2022-11-15T21:05:07.316Z,57.13
2022-11-15T21:06:07.325Z,57.43
2022-11-15T21:07:07.166Z,57.53
2022-11-15T21:08:06.326Z,57.76
2022-11-15T21:09:08.304Z,57.86
2022-11-15T21:10:06.311Z,58.06
2022-11-15T21:11:06.876Z,58.12
2022-11-15T21:12:06.275Z,57.93
2022-11-15T21:13:07.745Z,58.15
2022-11-15T21:14:09.271Z,58.65
2022-11-15T21:15:06.213Z,59.25
2022-11-15T21:16:06.325Z,59.98
2022-11-15T21:17:06.495Z,60.48
2022-11-15T21:18:06.834Z,60.71
2022-11-15T21:19:08.088Z,60.80
2022-11-15T21:20:06.217Z,60.91
2022-11-15T21:21:06.197Z,60.80
2022-11-15T21:22:06.165Z,60.91
2022-11-15T21:23:06.193Z,61.00
2022-11-15T21:24:06.125Z,61.30
2022-11-15T21:25:06.131Z,61.21
2022-11-15T21:26:06.111Z,61.30
2022-11-15T21:27:06.844Z,61.63
2022-11-15T21:28:06.879Z,62.04
2022-11-15T21:29:06.075Z,61.93
2022-11-15T21:30:06.043Z,62.23
2022-11-15T21:31:06.126Z,62.34
2022-11-15T21:32:07.251Z,62.53
2022-11-15T21:33:06.062Z,62.53
2022-11-15T21:34:06.891Z,62.63
2022-11-15T21:35:06.042Z,62.43
2022-11-15T21:36:06.016Z,62.63
2022-11-15T21:37:08.315Z,62.83
2022-11-15T21:38:05.996Z,62.83
2022-11-15T21:39:06.000Z,62.93
2022-11-15T21:40:05.980Z,62.53
2022-11-15T21:41:05.999Z,62.01
2022-11-15T21:42:05.933Z,61.90
2022-11-15T21:43:05.892Z,62.04
2022-11-15T21:44:06.710Z,62.34
2022-11-15T21:45:07.772Z,62.23
2022-11-15T21:46:05.925Z,62.43
2022-11-15T21:47:07.486Z,62.13
2022-11-15T21:48:05.919Z,62.43
2022-11-15T21:49:07.029Z,62.53
2022-11-15T21:50:05.852Z,62.73
2022-11-15T21:51:05.853Z,62.73
2022-11-15T21:52:12.325Z,63.03
2022-11-15T21:53:05.851Z,63.26
2022-11-15T21:54:06.713Z,63.73
2022-11-15T21:55:06.368Z,63.93
2022-11-15T21:56:07.523Z,65.03
2022-11-15T21:57:05.778Z,63.73
2022-11-15T21:58:07.679Z,64.06
2022-11-15T21:59:05.741Z,64.26
2022-11-15T22:00:06.473Z,64.69
2022-11-15T22:01:08.680Z,65.49
2022-11-15T22:02:05.720Z,65.39
2022-11-15T22:03:06.362Z,65.69
2022-11-15T22:04:12.990Z,66.39
2022-11-15T22:05:08.027Z,66.39
2022-11-15T22:06:05.670Z,66.29
2022-11-15T22:07:05.744Z,66.49
2022-11-15T22:08:05.630Z,66.72
2022-11-15T22:09:08.242Z,67.22
2022-11-15T22:10:06.556Z,67.63
2022-11-15T22:11:05.599Z,67.93
2022-11-15T22:12:07.399Z,68.16
2022-11-15T22:13:05.614Z,68.52
2022-11-15T22:14:05.572Z,68.13
2022-11-15T22:15:06.689Z,67.93
2022-11-15T22:16:05.593Z,67.63
2022-11-15T22:17:05.569Z,67.93
2022-11-15T22:18:05.538Z,67.72
2022-11-15T22:19:05.504Z,67.43
2022-11-15T22:20:23.116Z,67.82
2022-11-15T22:21:06.351Z,67.72
2022-11-15T22:22:10.116Z,67.96
2022-11-15T22:23:43.400Z,67.96
2022-11-15T22:24:06.324Z,68.02
2022-11-15T22:25:05.655Z,67.76
2022-11-15T22:26:06.244Z,67.86
2022-11-15T22:27:05.440Z,68.05
2022-11-15T22:28:05.408Z,68.76
2022-11-15T22:29:05.388Z,67.96
2022-11-15T22:30:05.340Z,67.86
2022-11-15T22:31:05.384Z,67.66
2022-11-15T22:32:05.373Z,67.76
2022-11-15T22:33:07.167Z,67.96
2022-11-15T22:34:18.385Z,68.19
2022-11-15T22:37:53.483Z,68.19
2022-11-15T22:38:54.324Z,68.19
2022-11-15T22:40:01.301Z,68.59
2022-11-15T22:40:55.289Z,68.26
2022-11-15T22:41:53.763Z,67.86
2022-11-15T22:42:54.726Z,68.05
2022-11-15T22:43:56.026Z,67.96
2022-11-15T22:44:54.543Z,68.16
2022-11-15T22:46:05.145Z,68.26
2022-11-15T22:46:53.745Z,67.76
2022-11-15T22:47:54.361Z,67.86
2022-11-15T22:48:58.582Z,68.19
2022-11-15T22:49:53.703Z,68.49
2022-11-15T22:50:53.727Z,68.79
2022-11-15T22:53:09.026Z,68.69
2022-11-15T22:54:09.205Z,68.79
2022-11-15T22:55:10.101Z,68.99
2022-11-15T22:56:10.694Z,68.59
2022-11-15T22:57:12.071Z,68.69
2022-11-15T22:58:09.934Z,68.19
2022-11-15T22:59:13.293Z,68.39
2022-11-15T23:00:11.439Z,68.79
2022-11-15T23:01:09.825Z,68.49
2022-11-15T23:02:15.320Z,68.69
2022-11-15T23:03:10.663Z,68.29
2022-11-15T23:04:09.811Z,68.49
2022-11-15T23:05:09.040Z,68.19
2022-11-15T23:06:09.101Z,68.22
2022-11-15T23:07:14.007Z,68.32
2022-11-15T23:08:13.730Z,68.22
2022-11-15T23:09:12.813Z,68.12
2022-11-15T23:10:13.483Z,68.32
2022-11-15T23:11:09.006Z,68.32
2022-11-15T23:12:12.311Z,68.62
2022-11-15T23:13:11.484Z,68.22
2022-11-15T23:14:13.483Z,67.72
2022-11-15T23:15:33.502Z,67.72
2022-11-15T23:16:10.001Z,67.52
2022-11-15T23:17:09.699Z,67.72
2022-11-15T23:18:18.783Z,67.12
2022-11-15T23:19:10.635Z,67.02
2022-11-15T23:20:42.048Z,66.78
2022-11-15T23:21:09.044Z,66.49
2022-11-15T23:22:09.661Z,66.28
2022-11-15T23:23:09.760Z,66.39
2022-11-15T23:24:12.751Z,66.28
2022-11-15T23:25:08.831Z,66.19
2022-11-15T23:26:10.725Z,66.09
2022-11-15T23:27:08.813Z,66.49
2022-11-15T23:28:10.804Z,66.42
2022-11-15T23:29:12.070Z,66.62
2022-11-15T23:30:08.811Z,66.72
2022-11-15T23:31:08.776Z,66.72
2022-11-15T23:32:08.772Z,67.25
2022-11-15T23:33:18.468Z,67.65
2022-11-15T23:34:22.489Z,67.85
2022-11-15T23:35:10.280Z,67.85
2022-11-15T23:36:09.507Z,67.55
2022-11-15T23:37:08.678Z,67.15
2022-11-15T23:38:08.690Z,67.45
2022-11-15T23:39:08.669Z,67.25
2022-11-15T23:40:10.587Z,67.15
2022-11-15T23:41:09.820Z,67.15
2022-11-15T23:42:10.098Z,67.25
2022-11-15T23:43:08.624Z,67.15
2022-11-15T23:44:09.821Z,67.25
2022-11-15T23:45:08.640Z,67.35
2022-11-15T23:46:08.587Z,67.55
2022-11-15T23:47:08.593Z,67.45
2022-11-15T23:48:08.635Z,67.45
2022-11-15T23:49:08.541Z,67.65
2022-11-15T23:50:08.568Z,67.65
2022-11-15T23:51:08.539Z,67.65
2022-11-15T23:52:08.515Z,67.55
2022-11-15T23:53:09.533Z,67.42
2022-11-15T23:54:10.280Z,67.62
2022-11-15T23:56:37.870Z,67.52
2022-11-15T23:57:10.575Z,67.55
2022-11-15T23:57:43.571Z,67.62
2022-11-15T23:58:44.587Z,67.62
2022-11-15T23:59:47.036Z,67.92
